Airfield :
LOGIN :

Register | Disclaimer

   EN    FR    IT 

 










Legend :    VFR   Marginal VFR   IFR   Intensive IFR   Very Intensive IFR
Visi :
Ceiling :
>= 8 km
>= 3000ft
5 to 8 km
1000 to 3000 ft
1500m to 5 km
500 to 1000 ft
800 to 1500m
200 to 500 ft
< 800m
< 200 ft
Symbols :   Thunderstorms  Fog  Heavy snow  Heavy precipitations  Wind > 20 kt
SIGMETs :     Misc.  Thunderstorms  Icing  Turbulence  Mountain Waves  Volcanic Ashes






- Airport Elevation : 112 ft
- IATA code : KIR


EIKY - Kerry Farranfore

CURRENT METAR :
  • 181900Z 26005KT 230V320 9000 +RA OVC022 09/08 Q0997

EXPIRED METARs :
  • 181830Z 26005KT 240V300 9999 FEW022 SCT042 BKN049 09/08 Q0997
  • 181800Z 30003KT 220V340 9999 BKN022 09/08 Q0996
  • 181730Z 29003KT 240V360 9999 BKN022 09/08 Q0996
  • 181700Z 29004KT 230V330 9999 BKN023 10/09 Q0996

TAF TAF EIKY
Valid from the 18 at 18:00 until the 18 at 21:00 UTC


181700Z 1818/1821 29012KT 9999 SCT012 BKN025
TEMPO 1818/1820 -SHRA SCT010 SCT018CB
BECMG 1818/1821 32007KT



MET'MAP, your aeronautical weather chart ! - Copyright ORBIFLY December 2007 - Disclaimer

ORBIFLY MET'MAP TEAM :

Programming & Development : Alexandra Zaïnal
Concept & Development : Baudouin d'Aumeries
Co-Development & Prog : Marc-Olivier Méhu
Technical & hardware support : Manuel Goepfert

Contact : metmap@orbifly.com




SOURCES & CREDITS :

   NOAA